sensor_id;sensor_type;location;lat;lon;timestamp;P1;durP1;ratioP1;P2;durP2;ratioP2
9934;SDS011;5006;41.828;23.478;2022-09-25T00:00:54;3.25;;;1.70;;
9934;SDS011;5006;41.828;23.478;2022-09-25T00:02:01;3.25;;;1.90;;
9934;SDS011;5006;41.828;23.478;2022-09-25T00:03:06;1.67;;;1.58;;
9934;SDS011;5006;41.828;23.478;2022-09-25T00:04:13;2.53;;;1.58;;
9934;SDS011;5006;41.828;23.478;2022-09-25T00:05:17;2.70;;;1.70;;
9934;SDS011;5006;41.828;23.478;2022-09-25T00:06:24;1.80;;;1.50;;
9934;SDS011;5006;41.828;23.478;2022-09-25T00:07:29;1.83;;;1.70;;
9934;SDS011;5006;41.828;23.478;2022-09-25T00:08:35;2.47;;;1.67;;
9934;SDS011;5006;41.828;23.478;2022-09-25T00:09:40;3.08;;;1.60;;
9934;SDS011;5006;41.828;23.478;2022-09-25T00:10:47;2.42;;;1.70;;
9934;SDS011;5006;41.828;23.478;2022-09-25T00:11:53;1.63;;;1.50;;
9934;SDS011;5006;41.828;23.478;2022-09-25T00:12:59;2.05;;;1.67;;
9934;SDS011;5006;41.828;23.478;2022-09-25T00:14:05;1.45;;;1.35;;
9934;SDS011;5006;41.828;23.478;2022-09-25T00:15:11;1.77;;;1.60;;
9934;SDS011;5006;41.828;23.478;2022-09-25T00:16:16;2.22;;;1.50;;
9934;SDS011;5006;41.828;23.478;2022-09-25T00:17:23;1.55;;;1.30;;
9934;SDS011;5006;41.828;23.478;2022-09-25T00:18:29;3.78;;;1.50;;
9934;SDS011;5006;41.828;23.478;2022-09-25T00:19:51;1.83;;;1.60;;
9934;SDS011;5006;41.828;23.478;2022-09-25T00:20:59;1.60;;;1.35;;
9934;SDS011;5006;41.828;23.478;2022-09-25T00:22:04;4.22;;;1.30;;
9934;SDS011;5006;41.828;23.478;2022-09-25T00:23:09;2.97;;;1.50;;
9934;SDS011;5006;41.828;23.478;2022-09-25T00:24:14;1.67;;;1.58;;
9934;SDS011;5006;41.828;23.478;2022-09-25T00:25:19;3.58;;;1.30;;
9934;SDS011;5006;41.828;23.478;2022-09-25T00:26:25;1.35;;;1.25;;
9934;SDS011;5006;41.828;23.478;2022-09-25T00:27:30;1.42;;;1.33;;
9934;SDS011;5006;41.828;23.478;2022-09-25T00:28:36;2.08;;;1.50;;
9934;SDS011;5006;41.828;23.478;2022-09-25T00:29:43;2.03;;;1.30;;
9934;SDS011;5006;41.828;23.478;2022-09-25T00:30:50;1.67;;;1.40;;
9934;SDS011;5006;41.828;23.478;2022-09-25T00:31:55;2.47;;;1.70;;
9934;SDS011;5006;41.828;23.478;2022-09-25T00:33:00;1.98;;;1.70;;
9934;SDS011;5006;41.828;23.478;2022-09-25T00:34:05;1.83;;;1.55;;
9934;SDS011;5006;41.828;23.478;2022-09-25T00:35:11;1.50;;;1.35;;
9934;SDS011;5006;41.828;23.478;2022-09-25T00:36:16;1.63;;;1.40;;
9934;SDS011;5006;41.828;23.478;2022-09-25T00:37:22;1.63;;;1.52;;
9934;SDS011;5006;41.828;23.478;2022-09-25T00:38:27;1.50;;;1.40;;
9934;SDS011;5006;41.828;23.478;2022-09-25T00:39:33;2.30;;;1.80;;
9934;SDS011;5006;41.828;23.478;2022-09-25T00:40:37;1.67;;;1.50;;
9934;SDS011;5006;41.828;23.478;2022-09-25T00:41:43;1.52;;;1.42;;
9934;SDS011;5006;41.828;23.478;2022-09-25T00:42:48;1.77;;;1.67;;
9934;SDS011;5006;41.828;23.478;2022-09-25T00:43:54;2.15;;;1.95;;
9934;SDS011;5006;41.828;23.478;2022-09-25T00:45:02;2.00;;;1.60;;
9934;SDS011;5006;41.828;23.478;2022-09-25T00:46:09;1.50;;;1.40;;
9934;SDS011;5006;41.828;23.478;2022-09-25T00:47:17;2.05;;;1.58;;
9934;SDS011;5006;41.828;23.478;2022-09-25T00:48:26;2.17;;;1.50;;
9934;SDS011;5006;41.828;23.478;2022-09-25T00:49:34;3.15;;;1.67;;
9934;SDS011;5006;41.828;23.478;2022-09-25T00:50:42;1.85;;;1.52;;
9934;SDS011;5006;41.828;23.478;2022-09-25T00:51:55;1.73;;;1.50;;
9934;SDS011;5006;41.828;23.478;2022-09-25T00:53:05;1.52;;;1.42;;
9934;SDS011;5006;41.828;23.478;2022-09-25T00:54:15;2.17;;;1.67;;
9934;SDS011;5006;41.828;23.478;2022-09-25T00:55:23;3.08;;;1.70;;
9934;SDS011;5006;41.828;23.478;2022-09-25T00:56:33;2.17;;;1.60;;
9934;SDS011;5006;41.828;23.478;2022-09-25T00:57:44;3.05;;;1.65;;
9934;SDS011;5006;41.828;23.478;2022-09-25T00:58:51;1.90;;;1.60;;
9934;SDS011;5006;41.828;23.478;2022-09-25T00:59:58;1.58;;;1.48;;
9934;SDS011;5006;41.828;23.478;2022-09-25T01:01:10;2.97;;;1.90;;
9934;SDS011;5006;41.828;23.478;2022-09-25T01:02:18;1.80;;;1.70;;
9934;SDS011;5006;41.828;23.478;2022-09-25T01:03:28;1.77;;;1.67;;
9934;SDS011;5006;41.828;23.478;2022-09-25T01:04:34;2.83;;;1.70;;
9934;SDS011;5006;41.828;23.478;2022-09-25T01:05:41;2.63;;;1.60;;
9934;SDS011;5006;41.828;23.478;2022-09-25T01:06:48;2.60;;;1.80;;
9934;SDS011;5006;41.828;23.478;2022-09-25T01:07:54;1.90;;;1.70;;
9934;SDS011;5006;41.828;23.478;2022-09-25T01:09:01;2.35;;;2.00;;
9934;SDS011;5006;41.828;23.478;2022-09-25T01:10:07;2.47;;;1.85;;
9934;SDS011;5006;41.828;23.478;2022-09-25T01:11:13;2.25;;;2.05;;
9934;SDS011;5006;41.828;23.478;2022-09-25T01:12:20;3.00;;;2.10;;
9934;SDS011;5006;41.828;23.478;2022-09-25T01:13:25;1.90;;;1.70;;
9934;SDS011;5006;41.828;23.478;2022-09-25T01:14:32;2.97;;;1.80;;
9934;SDS011;5006;41.828;23.478;2022-09-25T01:15:40;2.20;;;1.80;;
9934;SDS011;5006;41.828;23.478;2022-09-25T01:16:51;2.80;;;1.70;;
9934;SDS011;5006;41.828;23.478;2022-09-25T01:18:07;2.00;;;1.83;;
9934;SDS011;5006;41.828;23.478;2022-09-25T01:19:25;2.30;;;2.10;;
9934;SDS011;5006;41.828;23.478;2022-09-25T01:20:56;2.10;;;1.90;;
9934;SDS011;5006;41.828;23.478;2022-09-25T01:22:09;2.10;;;1.90;;
9934;SDS011;5006;41.828;23.478;2022-09-25T01:23:26;2.10;;;1.77;;
9934;SDS011;5006;41.828;23.478;2022-09-25T01:24:43;2.17;;;1.90;;
9934;SDS011;5006;41.828;23.478;2022-09-25T01:26:11;2.75;;;1.67;;
9934;SDS011;5006;41.828;23.478;2022-09-25T01:27:34;4.75;;;1.98;;
9934;SDS011;5006;41.828;23.478;2022-09-25T01:28:51;3.05;;;2.03;;
9934;SDS011;5006;41.828;23.478;2022-09-25T01:30:03;3.25;;;1.80;;
9934;SDS011;5006;41.828;23.478;2022-09-25T01:31:13;3.38;;;1.90;;
9934;SDS011;5006;41.828;23.478;2022-09-25T01:32:22;2.38;;;2.05;;
9934;SDS011;5006;41.828;23.478;2022-09-25T01:33:39;2.20;;;1.88;;
9934;SDS011;5006;41.828;23.478;2022-09-25T01:34:51;2.30;;;1.90;;
9934;SDS011;5006;41.828;23.478;2022-09-25T01:36:05;2.47;;;2.13;;
9934;SDS011;5006;41.828;23.478;2022-09-25T01:37:19;2.97;;;2.10;;
9934;SDS011;5006;41.828;23.478;2022-09-25T01:38:31;3.22;;;2.10;;
9934;SDS011;5006;41.828;23.478;2022-09-25T01:39:43;1.80;;;1.70;;
9934;SDS011;5006;41.828;23.478;2022-09-25T01:40:51;2.22;;;1.80;;
9934;SDS011;5006;41.828;23.478;2022-09-25T01:42:01;2.13;;;1.83;;
9934;SDS011;5006;41.828;23.478;2022-09-25T01:43:12;2.45;;;2.10;;
9934;SDS011;5006;41.828;23.478;2022-09-25T01:44:25;1.88;;;1.65;;
9934;SDS011;5006;41.828;23.478;2022-09-25T01:45:33;1.95;;;1.75;;
9934;SDS011;5006;41.828;23.478;2022-09-25T01:46:45;2.30;;;2.00;;
9934;SDS011;5006;41.828;23.478;2022-09-25T01:47:51;2.80;;;1.80;;
9934;SDS011;5006;41.828;23.478;2022-09-25T01:49:02;2.03;;;1.77;;
9934;SDS011;5006;41.828;23.478;2022-09-25T01:50:12;2.25;;;1.98;;
9934;SDS011;5006;41.828;23.478;2022-09-25T01:51:23;2.28;;;2.05;;
9934;SDS011;5006;41.828;23.478;2022-09-25T01:52:34;2.10;;;1.75;;
9934;SDS011;5006;41.828;23.478;2022-09-25T01:53:45;1.88;;;1.73;;
9934;SDS011;5006;41.828;23.478;2022-09-25T01:54:53;2.95;;;2.20;;
9934;SDS011;5006;41.828;23.478;2022-09-25T01:56:06;2.17;;;1.90;;
9934;SDS011;5006;41.828;23.478;2022-09-25T01:57:17;2.15;;;1.80;;
9934;SDS011;5006;41.828;23.478;2022-09-25T01:58:26;2.17;;;1.90;;
9934;SDS011;5006;41.828;23.478;2022-09-25T01:59:36;3.05;;;2.10;;
9934;SDS011;5006;41.828;23.478;2022-09-25T02:00:48;2.40;;;1.92;;
9934;SDS011;5006;41.828;23.478;2022-09-25T02:01:57;2.38;;;2.10;;
9934;SDS011;5006;41.828;23.478;2022-09-25T02:03:07;3.17;;;1.98;;
9934;SDS011;5006;41.828;23.478;2022-09-25T02:04:17;1.80;;;1.58;;
9934;SDS011;5006;41.828;23.478;2022-09-25T02:05:28;2.13;;;1.92;;
9934;SDS011;5006;41.828;23.478;2022-09-25T02:06:37;3.20;;;1.40;;
9934;SDS011;5006;41.828;23.478;2022-09-25T02:07:47;2.10;;;1.90;;
9934;SDS011;5006;41.828;23.478;2022-09-25T02:08:56;2.08;;;1.83;;
9934;SDS011;5006;41.828;23.478;2022-09-25T02:10:07;2.25;;;2.00;;
9934;SDS011;5006;41.828;23.478;2022-09-25T02:11:14;2.40;;;2.00;;
9934;SDS011;5006;41.828;23.478;2022-09-25T02:12:21;2.10;;;1.85;;
9934;SDS011;5006;41.828;23.478;2022-09-25T02:13:42;2.25;;;2.03;;
9934;SDS011;5006;41.828;23.478;2022-09-25T02:14:53;2.83;;;2.00;;
9934;SDS011;5006;41.828;23.478;2022-09-25T02:16:02;1.77;;;1.67;;
9934;SDS011;5006;41.828;23.478;2022-09-25T02:17:16;2.17;;;1.85;;
9934;SDS011;5006;41.828;23.478;2022-09-25T02:18:40;2.60;;;2.03;;
9934;SDS011;5006;41.828;23.478;2022-09-25T02:20:04;2.30;;;1.80;;
9934;SDS011;5006;41.828;23.478;2022-09-25T02:21:39;2.20;;;1.95;;
9934;SDS011;5006;41.828;23.478;2022-09-25T02:22:50;2.78;;;1.92;;
9934;SDS011;5006;41.828;23.478;2022-09-25T02:23:58;2.13;;;1.88;;
9934;SDS011;5006;41.828;23.478;2022-09-25T02:25:19;2.30;;;2.00;;
9934;SDS011;5006;41.828;23.478;2022-09-25T02:26:32;2.47;;;1.90;;
9934;SDS011;5006;41.828;23.478;2022-09-25T02:27:39;2.10;;;1.90;;
9934;SDS011;5006;41.828;23.478;2022-09-25T02:28:45;2.00;;;1.80;;
9934;SDS011;5006;41.828;23.478;2022-09-25T02:29:53;2.22;;;1.90;;
9934;SDS011;5006;41.828;23.478;2022-09-25T02:30:59;2.53;;;2.00;;
9934;SDS011;5006;41.828;23.478;2022-09-25T02:32:08;1.98;;;1.77;;
9934;SDS011;5006;41.828;23.478;2022-09-25T02:33:16;2.10;;;1.85;;
9934;SDS011;5006;41.828;23.478;2022-09-25T02:34:22;2.10;;;1.90;;
9934;SDS011;5006;41.828;23.478;2022-09-25T02:35:27;2.20;;;2.00;;
9934;SDS011;5006;41.828;23.478;2022-09-25T02:36:33;2.05;;;1.85;;
9934;SDS011;5006;41.828;23.478;2022-09-25T02:37:38;2.00;;;1.65;;
9934;SDS011;5006;41.828;23.478;2022-09-25T02:38:44;2.25;;;2.05;;
9934;SDS011;5006;41.828;23.478;2022-09-25T02:39:52;3.03;;;1.95;;
9934;SDS011;5006;41.828;23.478;2022-09-25T02:41:03;2.05;;;1.83;;
9934;SDS011;5006;41.828;23.478;2022-09-25T02:42:23;3.42;;;1.98;;
9934;SDS011;5006;41.828;23.478;2022-09-25T02:43:37;4.32;;;2.08;;
9934;SDS011;5006;41.828;23.478;2022-09-25T02:44:58;2.22;;;2.00;;
9934;SDS011;5006;41.828;23.478;2022-09-25T02:46:12;3.65;;;2.28;;
9934;SDS011;5006;41.828;23.478;2022-09-25T02:47:31;2.97;;;2.28;;
9934;SDS011;5006;41.828;23.478;2022-09-25T02:48:42;2.40;;;2.20;;
9934;SDS011;5006;41.828;23.478;2022-09-25T02:49:54;3.63;;;2.00;;
9934;SDS011;5006;41.828;23.478;2022-09-25T02:51:09;2.40;;;2.00;;
9934;SDS011;5006;41.828;23.478;2022-09-25T02:52:19;3.17;;;1.90;;
9934;SDS011;5006;41.828;23.478;2022-09-25T02:53:32;2.38;;;1.90;;
9934;SDS011;5006;41.828;23.478;2022-09-25T02:54:43;2.17;;;1.95;;
9934;SDS011;5006;41.828;23.478;2022-09-25T02:55:53;2.10;;;1.90;;
9934;SDS011;5006;41.828;23.478;2022-09-25T02:57:03;2.30;;;2.00;;
9934;SDS011;5006;41.828;23.478;2022-09-25T02:58:16;1.95;;;1.70;;
9934;SDS011;5006;41.828;23.478;2022-09-25T02:59:26;2.30;;;2.10;;
9934;SDS011;5006;41.828;23.478;2022-09-25T03:00:39;2.30;;;2.03;;
9934;SDS011;5006;41.828;23.478;2022-09-25T03:01:47;2.15;;;1.95;;
9934;SDS011;5006;41.828;23.478;2022-09-25T03:02:55;2.22;;;1.90;;
9934;SDS011;5006;41.828;23.478;2022-09-25T03:04:02;4.45;;;2.00;;
9934;SDS011;5006;41.828;23.478;2022-09-25T03:05:10;2.15;;;1.95;;
9934;SDS011;5006;41.828;23.478;2022-09-25T03:06:16;2.45;;;2.25;;
9934;SDS011;5006;41.828;23.478;2022-09-25T03:07:23;2.72;;;2.50;;
9934;SDS011;5006;41.828;23.478;2022-09-25T03:08:28;2.10;;;1.90;;
9934;SDS011;5006;41.828;23.478;2022-09-25T03:09:45;2.42;;;1.92;;
9934;SDS011;5006;41.828;23.478;2022-09-25T03:10:53;2.38;;;2.17;;
9934;SDS011;5006;41.828;23.478;2022-09-25T03:11:57;3.10;;;2.58;;
9934;SDS011;5006;41.828;23.478;2022-09-25T03:13:11;2.33;;;2.03;;
9934;SDS011;5006;41.828;23.478;2022-09-25T03:14:20;2.40;;;2.00;;
9934;SDS011;5006;41.828;23.478;2022-09-25T03:15:26;3.47;;;2.20;;
9934;SDS011;5006;41.828;23.478;2022-09-25T03:16:33;2.40;;;1.92;;
9934;SDS011;5006;41.828;23.478;2022-09-25T03:17:43;1.83;;;1.73;;
9934;SDS011;5006;41.828;23.478;2022-09-25T03:18:49;3.78;;;2.05;;
9934;SDS011;5006;41.828;23.478;2022-09-25T03:19:55;3.10;;;1.90;;
9934;SDS011;5006;41.828;23.478;2022-09-25T03:21:00;2.90;;;2.13;;
9934;SDS011;5006;41.828;23.478;2022-09-25T03:22:07;2.08;;;1.90;;
9934;SDS011;5006;41.828;23.478;2022-09-25T03:23:12;2.40;;;2.20;;
9934;SDS011;5006;41.828;23.478;2022-09-25T03:24:18;3.85;;;2.28;;
9934;SDS011;5006;41.828;23.478;2022-09-25T03:25:24;2.22;;;2.03;;
9934;SDS011;5006;41.828;23.478;2022-09-25T03:26:30;3.15;;;2.30;;
9934;SDS011;5006;41.828;23.478;2022-09-25T03:27:36;3.00;;;2.33;;
9934;SDS011;5006;41.828;23.478;2022-09-25T03:28:41;2.70;;;2.47;;
9934;SDS011;5006;41.828;23.478;2022-09-25T03:29:48;3.40;;;2.60;;
9934;SDS011;5006;41.828;23.478;2022-09-25T03:30:56;2.53;;;2.17;;
9934;SDS011;5006;41.828;23.478;2022-09-25T03:32:05;2.90;;;2.20;;
9934;SDS011;5006;41.828;23.478;2022-09-25T03:33:10;2.63;;;2.38;;
9934;SDS011;5006;41.828;23.478;2022-09-25T03:34:17;2.60;;;2.40;;
9934;SDS011;5006;41.828;23.478;2022-09-25T03:35:22;3.28;;;2.60;;
9934;SDS011;5006;41.828;23.478;2022-09-25T03:36:29;3.28;;;2.22;;
9934;SDS011;5006;41.828;23.478;2022-09-25T03:37:36;2.67;;;2.20;;
9934;SDS011;5006;41.828;23.478;2022-09-25T03:38:41;2.80;;;2.30;;
9934;SDS011;5006;41.828;23.478;2022-09-25T03:39:48;4.15;;;2.50;;
9934;SDS011;5006;41.828;23.478;2022-09-25T03:40:53;2.38;;;2.17;;
9934;SDS011;5006;41.828;23.478;2022-09-25T03:41:58;3.00;;;2.70;;
9934;SDS011;5006;41.828;23.478;2022-09-25T03:43:04;2.47;;;2.20;;
9934;SDS011;5006;41.828;23.478;2022-09-25T03:44:09;2.75;;;2.22;;
9934;SDS011;5006;41.828;23.478;2022-09-25T03:45:16;2.45;;;2.25;;
9934;SDS011;5006;41.828;23.478;2022-09-25T03:46:21;3.17;;;2.70;;
9934;SDS011;5006;41.828;23.478;2022-09-25T03:47:30;5.22;;;2.33;;
9934;SDS011;5006;41.828;23.478;2022-09-25T03:48:35;2.90;;;2.60;;
9934;SDS011;5006;41.828;23.478;2022-09-25T03:49:41;3.13;;;2.53;;
9934;SDS011;5006;41.828;23.478;2022-09-25T03:50:45;2.80;;;2.47;;
9934;SDS011;5006;41.828;23.478;2022-09-25T03:51:53;3.00;;;2.40;;
9934;SDS011;5006;41.828;23.478;2022-09-25T03:52:57;3.15;;;2.25;;
9934;SDS011;5006;41.828;23.478;2022-09-25T03:54:03;3.88;;;2.47;;
9934;SDS011;5006;41.828;23.478;2022-09-25T03:55:08;2.92;;;2.47;;
9934;SDS011;5006;41.828;23.478;2022-09-25T03:56:15;2.97;;;2.67;;
9934;SDS011;5006;41.828;23.478;2022-09-25T03:57:21;3.63;;;2.47;;
9934;SDS011;5006;41.828;23.478;2022-09-25T03:58:27;3.08;;;2.50;;
9934;SDS011;5006;41.828;23.478;2022-09-25T03:59:32;3.05;;;2.70;;
9934;SDS011;5006;41.828;23.478;2022-09-25T04:00:38;2.45;;;2.22;;
9934;SDS011;5006;41.828;23.478;2022-09-25T04:01:42;2.70;;;2.50;;
9934;SDS011;5006;41.828;23.478;2022-09-25T04:02:51;3.03;;;2.20;;
9934;SDS011;5006;41.828;23.478;2022-09-25T04:03:56;2.80;;;2.42;;
9934;SDS011;5006;41.828;23.478;2022-09-25T04:05:07;2.92;;;2.65;;
9934;SDS011;5006;41.828;23.478;2022-09-25T04:06:14;2.72;;;2.40;;
9934;SDS011;5006;41.828;23.478;2022-09-25T04:07:21;2.67;;;2.45;;
9934;SDS011;5006;41.828;23.478;2022-09-25T04:08:27;3.40;;;2.65;;
9934;SDS011;5006;41.828;23.478;2022-09-25T04:09:34;2.45;;;2.25;;
9934;SDS011;5006;41.828;23.478;2022-09-25T04:10:39;3.35;;;2.55;;
9934;SDS011;5006;41.828;23.478;2022-09-25T04:11:45;3.33;;;2.50;;
9934;SDS011;5006;41.828;23.478;2022-09-25T04:12:49;3.50;;;2.40;;
9934;SDS011;5006;41.828;23.478;2022-09-25T04:13:57;5.57;;;2.90;;
9934;SDS011;5006;41.828;23.478;2022-09-25T04:15:02;3.35;;;2.55;;
9934;SDS011;5006;41.828;23.478;2022-09-25T04:16:09;3.15;;;2.75;;
9934;SDS011;5006;41.828;23.478;2022-09-25T04:17:15;3.00;;;2.70;;
9934;SDS011;5006;41.828;23.478;2022-09-25T04:18:22;3.53;;;2.80;;
9934;SDS011;5006;41.828;23.478;2022-09-25T04:19:27;3.45;;;3.10;;
9934;SDS011;5006;41.828;23.478;2022-09-25T04:20:33;3.20;;;2.75;;
9934;SDS011;5006;41.828;23.478;2022-09-25T04:21:38;3.30;;;2.80;;
9934;SDS011;5006;41.828;23.478;2022-09-25T04:22:43;3.13;;;2.83;;
9934;SDS011;5006;41.828;23.478;2022-09-25T04:23:48;3.15;;;2.85;;
9934;SDS011;5006;41.828;23.478;2022-09-25T04:25:08;3.40;;;3.10;;
9934;SDS011;5006;41.828;23.478;2022-09-25T04:26:14;3.75;;;3.15;;
9934;SDS011;5006;41.828;23.478;2022-09-25T04:27:20;4.95;;;3.67;;
9934;SDS011;5006;41.828;23.478;2022-09-25T04:28:27;4.35;;;3.65;;
9934;SDS011;5006;41.828;23.478;2022-09-25T04:29:34;3.33;;;3.00;;
9934;SDS011;5006;41.828;23.478;2022-09-25T04:30:40;3.28;;;2.97;;
9934;SDS011;5006;41.828;23.478;2022-09-25T04:31:45;3.75;;;3.38;;
9934;SDS011;5006;41.828;23.478;2022-09-25T04:33:11;3.40;;;3.10;;
9934;SDS011;5006;41.828;23.478;2022-09-25T04:34:35;4.13;;;3.20;;
9934;SDS011;5006;41.828;23.478;2022-09-25T04:35:40;3.92;;;3.17;;
9934;SDS011;5006;41.828;23.478;2022-09-25T04:36:45;3.53;;;3.22;;
9934;SDS011;5006;41.828;23.478;2022-09-25T04:37:51;3.53;;;3.13;;
9934;SDS011;5006;41.828;23.478;2022-09-25T04:38:55;4.70;;;3.25;;
9934;SDS011;5006;41.828;23.478;2022-09-25T04:40:01;3.30;;;3.00;;
9934;SDS011;5006;41.828;23.478;2022-09-25T04:41:06;3.45;;;3.13;;
9934;SDS011;5006;41.828;23.478;2022-09-25T04:42:12;3.50;;;3.10;;
9934;SDS011;5006;41.828;23.478;2022-09-25T04:43:17;3.88;;;2.88;;
9934;SDS011;5006;41.828;23.478;2022-09-25T04:44:23;3.38;;;2.83;;
9934;SDS011;5006;41.828;23.478;2022-09-25T04:45:28;6.30;;;3.03;;
9934;SDS011;5006;41.828;23.478;2022-09-25T04:46:34;3.15;;;2.83;;
9934;SDS011;5006;41.828;23.478;2022-09-25T04:47:39;6.15;;;3.13;;
9934;SDS011;5006;41.828;23.478;2022-09-25T04:48:44;3.00;;;2.70;;
9934;SDS011;5006;41.828;23.478;2022-09-25T04:49:51;5.75;;;3.22;;
9934;SDS011;5006;41.828;23.478;2022-09-25T04:50:57;3.70;;;3.17;;
9934;SDS011;5006;41.828;23.478;2022-09-25T04:52:02;3.17;;;2.88;;
9934;SDS011;5006;41.828;23.478;2022-09-25T04:53:07;3.38;;;3.08;;
9934;SDS011;5006;41.828;23.478;2022-09-25T04:54:12;2.97;;;2.67;;
9934;SDS011;5006;41.828;23.478;2022-09-25T04:55:20;3.40;;;2.67;;
9934;SDS011;5006;41.828;23.478;2022-09-25T04:56:27;3.75;;;2.90;;
9934;SDS011;5006;41.828;23.478;2022-09-25T04:57:33;3.13;;;2.80;;
9934;SDS011;5006;41.828;23.478;2022-09-25T04:58:38;3.45;;;2.75;;
9934;SDS011;5006;41.828;23.478;2022-09-25T04:59:49;3.20;;;2.90;;
9934;SDS011;5006;41.828;23.478;2022-09-25T05:00:53;3.33;;;3.03;;
9934;SDS011;5006;41.828;23.478;2022-09-25T05:01:59;4.15;;;2.80;;
9934;SDS011;5006;41.828;23.478;2022-09-25T05:03:04;5.55;;;3.25;;
9934;SDS011;5006;41.828;23.478;2022-09-25T05:04:09;3.35;;;3.05;;
9934;SDS011;5006;41.828;23.478;2022-09-25T05:05:15;4.47;;;3.92;;
9934;SDS011;5006;41.828;23.478;2022-09-25T05:06:23;7.10;;;3.50;;
9934;SDS011;5006;41.828;23.478;2022-09-25T05:07:30;5.18;;;3.10;;
9934;SDS011;5006;41.828;23.478;2022-09-25T05:08:36;4.18;;;3.35;;
9934;SDS011;5006;41.828;23.478;2022-09-25T05:09:40;4.57;;;3.47;;
9934;SDS011;5006;41.828;23.478;2022-09-25T05:10:46;5.32;;;3.60;;
9934;SDS011;5006;41.828;23.478;2022-09-25T05:11:51;4.28;;;3.28;;
9934;SDS011;5006;41.828;23.478;2022-09-25T05:12:58;4.47;;;3.75;;
9934;SDS011;5006;41.828;23.478;2022-09-25T05:14:03;5.93;;;3.72;;
9934;SDS011;5006;41.828;23.478;2022-09-25T05:15:09;6.10;;;4.55;;
9934;SDS011;5006;41.828;23.478;2022-09-25T05:16:14;6.00;;;5.35;;
9934;SDS011;5006;41.828;23.478;2022-09-25T05:17:20;5.30;;;4.63;;
9934;SDS011;5006;41.828;23.478;2022-09-25T05:18:25;6.05;;;4.93;;
9934;SDS011;5006;41.828;23.478;2022-09-25T05:19:30;5.57;;;4.70;;
9934;SDS011;5006;41.828;23.478;2022-09-25T05:20:37;5.53;;;5.03;;
9934;SDS011;5006;41.828;23.478;2022-09-25T05:21:42;6.25;;;5.65;;
9934;SDS011;5006;41.828;23.478;2022-09-25T05:22:47;6.00;;;5.47;;
9934;SDS011;5006;41.828;23.478;2022-09-25T05:23:53;5.80;;;5.20;;
9934;SDS011;5006;41.828;23.478;2022-09-25T05:24:59;5.85;;;5.25;;
9934;SDS011;5006;41.828;23.478;2022-09-25T05:26:05;5.88;;;4.97;;
9934;SDS011;5006;41.828;23.478;2022-09-25T05:27:10;5.53;;;4.88;;
9934;SDS011;5006;41.828;23.478;2022-09-25T05:28:16;5.63;;;5.10;;
9934;SDS011;5006;41.828;23.478;2022-09-25T05:29:21;11.57;;;9.82;;
9934;SDS011;5006;41.828;23.478;2022-09-25T05:30:27;10.10;;;8.57;;
9934;SDS011;5006;41.828;23.478;2022-09-25T05:31:33;14.98;;;11.95;;
9934;SDS011;5006;41.828;23.478;2022-09-25T05:32:40;13.82;;;11.73;;
9934;SDS011;5006;41.828;23.478;2022-09-25T05:33:52;13.63;;;10.77;;
9934;SDS011;5006;41.828;23.478;2022-09-25T05:34:59;17.13;;;13.35;;
9934;SDS011;5006;41.828;23.478;2022-09-25T05:36:05;15.60;;;13.18;;
9934;SDS011;5006;41.828;23.478;2022-09-25T05:37:11;18.77;;;15.38;;
9934;SDS011;5006;41.828;23.478;2022-09-25T05:38:16;17.38;;;14.80;;
9934;SDS011;5006;41.828;23.478;2022-09-25T05:39:22;20.30;;;15.20;;
9934;SDS011;5006;41.828;23.478;2022-09-25T05:40:27;21.45;;;17.40;;
9934;SDS011;5006;41.828;23.478;2022-09-25T05:41:32;35.65;;;25.77;;
9934;SDS011;5006;41.828;23.478;2022-09-25T05:42:37;40.03;;;30.13;;
9934;SDS011;5006;41.828;23.478;2022-09-25T05:43:44;43.63;;;32.97;;
9934;SDS011;5006;41.828;23.478;2022-09-25T05:44:50;42.97;;;36.33;;
9934;SDS011;5006;41.828;23.478;2022-09-25T05:45:56;54.20;;;41.33;;
9934;SDS011;5006;41.828;23.478;2022-09-25T05:47:01;55.47;;;41.72;;
9934;SDS011;5006;41.828;23.478;2022-09-25T05:48:07;44.75;;;36.42;;
9934;SDS011;5006;41.828;23.478;2022-09-25T05:49:12;46.38;;;36.72;;
9934;SDS011;5006;41.828;23.478;2022-09-25T05:50:18;49.80;;;40.22;;
9934;SDS011;5006;41.828;23.478;2022-09-25T05:51:24;54.65;;;42.72;;
9934;SDS011;5006;41.828;23.478;2022-09-25T05:52:30;53.95;;;43.13;;
9934;SDS011;5006;41.828;23.478;2022-09-25T05:53:35;52.13;;;41.03;;
9934;SDS011;5006;41.828;23.478;2022-09-25T05:54:41;49.88;;;41.45;;
9934;SDS011;5006;41.828;23.478;2022-09-25T05:55:48;44.63;;;36.75;;
9934;SDS011;5006;41.828;23.478;2022-09-25T05:56:55;40.50;;;33.13;;
9934;SDS011;5006;41.828;23.478;2022-09-25T05:58:00;42.63;;;34.95;;
9934;SDS011;5006;41.828;23.478;2022-09-25T05:59:06;42.47;;;34.47;;
9934;SDS011;5006;41.828;23.478;2022-09-25T06:00:11;41.05;;;34.60;;
9934;SDS011;5006;41.828;23.478;2022-09-25T06:01:19;41.03;;;34.40;;
9934;SDS011;5006;41.828;23.478;2022-09-25T06:02:25;35.60;;;30.65;;
9934;SDS011;5006;41.828;23.478;2022-09-25T06:03:30;35.28;;;30.52;;
9934;SDS011;5006;41.828;23.478;2022-09-25T06:04:36;35.00;;;29.33;;
9934;SDS011;5006;41.828;23.478;2022-09-25T06:05:41;38.35;;;28.90;;
9934;SDS011;5006;41.828;23.478;2022-09-25T06:06:50;40.80;;;31.75;;
9934;SDS011;5006;41.828;23.478;2022-09-25T06:07:55;40.38;;;31.63;;
9934;SDS011;5006;41.828;23.478;2022-09-25T06:09:01;40.83;;;32.42;;
9934;SDS011;5006;41.828;23.478;2022-09-25T06:10:07;35.97;;;31.48;;
9934;SDS011;5006;41.828;23.478;2022-09-25T06:11:13;36.63;;;32.63;;
9934;SDS011;5006;41.828;23.478;2022-09-25T06:12:18;39.08;;;32.72;;
9934;SDS011;5006;41.828;23.478;2022-09-25T06:13:26;36.30;;;32.50;;
9934;SDS011;5006;41.828;23.478;2022-09-25T06:14:34;38.40;;;33.92;;
9934;SDS011;5006;41.828;23.478;2022-09-25T06:15:40;38.67;;;31.83;;
9934;SDS011;5006;41.828;23.478;2022-09-25T06:16:46;37.38;;;33.33;;
9934;SDS011;5006;41.828;23.478;2022-09-25T06:17:52;36.85;;;32.85;;
9934;SDS011;5006;41.828;23.478;2022-09-25T06:18:58;39.05;;;33.45;;
9934;SDS011;5006;41.828;23.478;2022-09-25T06:20:04;38.33;;;32.72;;
9934;SDS011;5006;41.828;23.478;2022-09-25T06:21:10;41.85;;;35.42;;
9934;SDS011;5006;41.828;23.478;2022-09-25T06:22:16;37.75;;;33.60;;
9934;SDS011;5006;41.828;23.478;2022-09-25T06:23:22;38.42;;;32.85;;
9934;SDS011;5006;41.828;23.478;2022-09-25T06:24:27;38.70;;;33.08;;
9934;SDS011;5006;41.828;23.478;2022-09-25T06:25:33;36.42;;;32.40;;
9934;SDS011;5006;41.828;23.478;2022-09-25T06:26:39;37.05;;;32.28;;
9934;SDS011;5006;41.828;23.478;2022-09-25T06:27:44;42.53;;;36.63;;
9934;SDS011;5006;41.828;23.478;2022-09-25T06:28:49;40.35;;;34.95;;
9934;SDS011;5006;41.828;23.478;2022-09-25T06:29:55;40.55;;;33.17;;
9934;SDS011;5006;41.828;23.478;2022-09-25T06:31:00;29.33;;;26.13;;
9934;SDS011;5006;41.828;23.478;2022-09-25T06:32:06;27.40;;;24.50;;
9934;SDS011;5006;41.828;23.478;2022-09-25T06:33:11;30.30;;;25.42;;
9934;SDS011;5006;41.828;23.478;2022-09-25T06:34:18;32.83;;;27.50;;
9934;SDS011;5006;41.828;23.478;2022-09-25T06:35:23;32.83;;;28.90;;
9934;SDS011;5006;41.828;23.478;2022-09-25T06:36:29;35.00;;;29.23;;
9934;SDS011;5006;41.828;23.478;2022-09-25T06:37:35;35.45;;;31.05;;
9934;SDS011;5006;41.828;23.478;2022-09-25T06:38:41;38.88;;;33.80;;
9934;SDS011;5006;41.828;23.478;2022-09-25T06:39:46;32.50;;;27.17;;
9934;SDS011;5006;41.828;23.478;2022-09-25T06:40:52;28.98;;;21.75;;
9934;SDS011;5006;41.828;23.478;2022-09-25T06:41:57;26.63;;;22.65;;
9934;SDS011;5006;41.828;23.478;2022-09-25T06:43:03;24.45;;;21.95;;
9934;SDS011;5006;41.828;23.478;2022-09-25T06:44:08;27.88;;;24.88;;
9934;SDS011;5006;41.828;23.478;2022-09-25T06:45:14;31.77;;;25.92;;
9934;SDS011;5006;41.828;23.478;2022-09-25T06:46:20;31.15;;;27.15;;
9934;SDS011;5006;41.828;23.478;2022-09-25T06:47:26;28.95;;;25.95;;
9934;SDS011;5006;41.828;23.478;2022-09-25T06:48:31;29.85;;;26.38;;
9934;SDS011;5006;41.828;23.478;2022-09-25T06:49:37;29.67;;;26.10;;
9934;SDS011;5006;41.828;23.478;2022-09-25T06:50:43;28.15;;;24.70;;
9934;SDS011;5006;41.828;23.478;2022-09-25T06:51:50;31.70;;;25.90;;
9934;SDS011;5006;41.828;23.478;2022-09-25T06:52:57;28.50;;;25.48;;